Inuvik, Canada
Current Conditions -  °F | °C
As of 1:00 PM on Tuesday 21 Oct 2014 (Local Time) from CYEV Reporting Station
Broken Clouds Broken Clouds  
Wind Chill: 15°   Ceiling: 14000
Heat Index: 25°   Visibility: 14mi
Dew Point: 18°   Wind: 9mph
Humidity: 74%   Direction: 70°ENE
Pressure: 29.76"   Gusts: NA
Location:  68.36°N, 133.73°W
Report Text: CYEV 211900Z 07008KT 14SM SCT065 BKN140 BKN250 M04/M08 A2976 RMK SC3AC3CI1 SLP083
Loading
Personal Weather Stations






























Interactive Weather Map
Tropical Storm Tracking
New forecast layout! Learn more

10-Day Weather Forecast

Advertisements
Track Severe Weather on mobile